Time;durP1;ratioP1;P1;durP2;ratioP2;P2;SDS_P1;SDS_P2;PMS_P1;PMS_P2;Temp;Humidity;BMP_temperature;BMP_pressure;BME280_temperature;BME280_humidity;BME280_pressure;Samples;Min_cycle;Max_cycle;Signal;HPM_P1;HPM_P2
2021/12/31 00:02:39;;;;;;;10.77;8.30;;;;;;;8.39;90.77;98670.41;2239687;80;20980;-84
2021/12/31 00:05:40;;;;;;;9.93;8.00;;;;;;;8.25;91.51;98680.95;2239673;79;21001;-83
2021/12/31 00:08:40;;;;;;;14.43;9.27;;;;;;;8.14;91.43;98677.28;2239513;79;20993;-84
2021/12/31 00:11:41;;;;;;;13.07;9.80;;;;;;;8.08;92.66;98676.73;2239121;79;21699;-84
2021/12/31 00:14:41;;;;;;;16.30;8.43;;;;;;;8.02;92.52;98677.92;2239771;80;21392;-82
2021/12/31 00:17:42;;;;;;;10.93;8.40;;;;;;;7.96;92.78;98677.80;2240130;80;20932;-82
2021/12/31 00:20:42;;;;;;;15.87;8.50;;;;;;;7.96;93.23;98681.70;2239847;79;21004;-84
2021/12/31 00:23:45;;;;;;;11.80;7.40;;;;;;;7.93;94.23;98684.24;2239870;79;20956;-84
2021/12/31 00:26:45;;;;;;;33.70;23.03;;;;;;;7.91;93.74;98682.03;2239693;80;21004;-83
2021/12/31 00:29:46;;;;;;;30.33;16.00;;;;;;;7.94;96.29;98684.70;2239657;79;20956;-82
2021/12/31 00:32:46;;;;;;;11.17;9.50;;;;;;;9.14;97.08;98685.54;2239782;79;20967;-83
2021/12/31 00:35:47;;;;;;;11.50;8.40;;;;;;;8.86;92.60;98688.14;2239398;80;21000;-82
2021/12/31 00:38:47;;;;;;;14.90;10.00;;;;;;;8.58;91.99;98686.78;2239460;79;21004;-82
2021/12/31 00:41:48;;;;;;;10.73;8.50;;;;;;;8.39;92.58;98684.71;2239513;79;21000;-82
2021/12/31 00:44:48;;;;;;;13.90;9.60;;;;;;;8.26;93.35;98685.30;2238815;80;21371;-82
2021/12/31 00:47:49;;;;;;;12.27;9.13;;;;;;;8.15;93.34;98689.00;2238956;80;20909;-82
2021/12/31 00:50:50;;;;;;;15.93;8.83;;;;;;;8.13;93.60;98693.72;2238951;79;20988;-81
2021/12/31 00:53:50;;;;;;;12.00;9.97;;;;;;;8.11;94.02;98694.12;2239276;79;20988;-82
2021/12/31 00:56:50;;;;;;;12.50;9.67;;;;;;;8.07;94.46;98695.78;2239210;80;20933;-82
2021/12/31 00:59:51;;;;;;;13.63;11.43;;;;;;;8.08;94.55;98698.84;2238753;80;20988;-81
2021/12/31 01:02:52;;;;;;;13.57;10.63;;;;;;;8.08;94.60;98702.73;2239177;79;20956;-81
2021/12/31 01:05:52;;;;;;;11.27;8.90;;;;;;;8.08;94.60;98694.94;2239662;79;20952;-81
2021/12/31 01:08:53;;;;;;;12.77;10.47;;;;;;;8.09;95.11;98691.48;2239289;80;20987;-82
2021/12/31 01:11:55;;;;;;;10.80;8.93;;;;;;;8.12;95.92;98688.95;2239085;80;20968;-82
2021/12/31 01:15:03;;;;;;;9.37;7.80;;;;;;;8.14;96.52;98689.85;2239046;79;21341;-81
2021/12/31 01:21:03;;;;;;;9.40;6.90;;;;;;;8.20;96.06;98696.47;2216829;80;21741;-82
2021/12/31 01:24:03;;;;;;;10.73;7.47;;;;;;;8.21;96.51;98700.82;2238484;80;21015;-82
2021/12/31 01:27:04;;;;;;;11.03;8.10;;;;;;;8.25;97.56;98697.43;2239225;80;20964;-81
2021/12/31 01:30:05;;;;;;;9.23;7.00;;;;;;;8.30;97.51;98696.21;2239499;79;20949;-81
2021/12/31 01:33:05;;;;;;;12.00;7.37;;;;;;;8.32;97.73;98697.12;2239385;79;21368;-82
2021/12/31 01:36:06;;;;;;;9.23;7.00;;;;;;;8.36;97.78;98697.66;2239351;80;20969;-82
2021/12/31 01:39:06;;;;;;;7.83;5.93;;;;;;;8.37;97.90;98701.14;2239382;79;21043;-82
2021/12/31 01:42:07;;;;;;;9.13;8.17;;;;;;;8.42;99.27;98706.00;2239684;80;20995;-82
2021/12/31 01:45:09;;;;;;;8.27;6.97;;;;;;;8.46;97.93;98701.30;2239853;80;20983;-82
2021/12/31 01:48:21;;;;;;;9.93;6.87;;;;;;;8.46;98.42;98704.78;2239508;80;21040;-82
2021/12/31 01:51:12;;;;;;;9.07;7.47;;;;;;;8.47;97.83;98708.25;2237421;79;21071;-82
2021/12/31 01:54:12;;;;;;;12.70;7.67;;;;;;;8.52;98.15;98706.61;2239335;80;21019;-82
2021/12/31 01:57:13;;;;;;;17.50;8.23;;;;;;;8.54;97.81;98707.52;2239677;80;20945;-81
2021/12/31 02:00:13;;;;;;;11.37;9.67;;;;;;;8.53;97.38;98709.24;2240069;80;21368;-82
2021/12/31 02:03:14;;;;;;;90.10;65.60;;;;;;;8.58;97.20;98709.32;2239868;79;21286;-81
2021/12/31 02:06:14;;;;;;;30.10;21.50;;;;;;;9.02;100.00;98705.31;2240008;79;20921;-83
2021/12/31 02:09:15;;;;;;;15.83;10.80;;;;;;;9.87;100.00;98710.45;2239692;79;20916;-82
2021/12/31 02:12:15;;;;;;;9.30;7.27;;;;;;;9.85;96.27;98705.22;2239135;79;20957;-83
2021/12/31 02:15:16;;;;;;;11.53;8.60;;;;;;;9.55;94.30;98705.70;2239115;80;20976;-82
2021/12/31 02:18:16;;;;;;;12.53;9.20;;;;;;;9.37;94.69;98716.26;2239295;80;20948;-81
2021/12/31 02:21:17;;;;;;;16.50;11.17;;;;;;;9.21;94.51;98715.16;2238855;79;21031;-80
2021/12/31 02:24:19;;;;;;;14.80;9.70;;;;;;;9.13;94.64;98720.67;2239665;79;20968;-81
2021/12/31 02:27:19;;;;;;;10.93;9.83;;;;;;;9.05;95.97;98720.98;2239051;80;21405;-81
2021/12/31 02:30:20;;;;;;;16.30;11.10;;;;;;;8.99;95.74;98717.86;2239143;80;20952;-82
2021/12/31 02:33:20;;;;;;;12.37;10.90;;;;;;;8.90;95.90;98712.08;2238878;79;21372;-81
2021/12/31 02:36:22;;;;;;;14.53;12.73;;;;;;;8.89;97.14;98725.06;2237772;80;21416;-81
2021/12/31 02:39:22;;;;;;;18.10;14.27;;;;;;;8.89;97.24;98722.03;2237837;79;20995;-80
2021/12/31 02:42:23;;;;;;;14.03;12.30;;;;;;;8.88;97.16;98725.48;2238039;79;20964;-82
2021/12/31 02:45:30;;;;;;;15.83;12.30;;;;;;;8.91;97.64;98719.45;2237908;79;20960;-81
2021/12/31 02:48:28;;;;;;;15.83;12.80;;;;;;;8.89;98.16;98724.64;2237456;79;21424;-82
2021/12/31 02:51:29;;;;;;;19.10;14.37;;;;;;;8.85;97.60;98730.64;2238434;79;21000;-82
2021/12/31 02:54:29;;;;;;;18.67;14.77;;;;;;;8.83;98.45;98727.14;2239170;79;21316;-83
2021/12/31 02:57:30;;;;;;;18.17;14.37;;;;;;;8.81;98.12;98726.66;2239018;79;20976;-80
2021/12/31 03:00:30;;;;;;;76.40;56.13;;;;;;;8.81;98.83;98724.94;2238759;79;21003;-81
2021/12/31 03:03:31;;;;;;;27.10;20.60;;;;;;;9.60;100.00;98723.13;2238958;79;21011;-81
2021/12/31 03:06:31;;;;;;;23.40;14.10;;;;;;;11.62;100.00;98708.20;2239334;79;20989;-82
2021/12/31 03:09:32;;;;;;;14.37;12.30;;;;;;;11.07;92.23;98714.34;2238629;79;20969;-80
2021/12/31 03:12:32;;;;;;;13.97;11.43;;;;;;;10.45;91.78;98716.39;2239124;79;21385;-81
2021/12/31 03:15:33;;;;;;;15.30;12.67;;;;;;;9.99;92.44;98715.81;2239197;79;21332;-81
2021/12/31 03:18:33;;;;;;;14.20;12.30;;;;;;;9.66;92.73;98718.88;2239166;79;20960;-81
2021/12/31 03:21:34;;;;;;;12.27;10.60;;;;;;;9.48;93.93;98718.16;2239009;79;20965;-81
2021/12/31 03:24:34;;;;;;;16.30;12.40;;;;;;;9.36;94.31;98728.41;2239163;79;20945;-81
2021/12/31 03:27:35;;;;;;;16.30;11.30;;;;;;;9.24;94.22;98722.59;2238862;79;20992;-82
2021/12/31 03:33:38;;;;;;;15.73;9.37;;;;;;;9.12;94.61;98726.31;2216630;80;21076;-81
2021/12/31 03:36:38;;;;;;;12.80;9.30;;;;;;;9.10;95.79;98729.73;2238683;79;20971;-82
2021/12/31 03:39:39;;;;;;;10.60;9.23;;;;;;;9.06;95.60;98730.12;2238984;79;21039;-82
2021/12/31 03:42:40;;;;;;;15.07;10.90;;;;;;;9.04;95.60;98729.22;2239455;80;21380;-81
2021/12/31 03:45:41;;;;;;;13.13;9.47;;;;;;;9.05;97.29;98723.16;2239515;79;20936;-82
2021/12/31 03:48:41;;;;;;;11.97;10.10;;;;;;;9.09;96.03;98724.08;2239486;79;21443;-84
2021/12/31 03:51:42;;;;;;;9.77;8.77;;;;;;;9.08;96.72;98729.72;2240577;79;21019;-83
2021/12/31 03:54:42;;;;;;;15.33;10.00;;;;;;;9.06;96.01;98725.34;2240563;79;20983;-82
2021/12/31 03:57:43;;;;;;;9.03;8.13;;;;;;;9.06;96.57;98727.94;2239987;79;20943;-82
2021/12/31 04:00:45;;;;;;;9.77;7.77;;;;;;;9.06;96.57;98735.75;2240405;80;20928;-83
2021/12/31 04:03:46;;;;;;;12.53;8.53;;;;;;;9.03;96.75;98733.97;2239885;80;21012;-83
2021/12/31 04:06:46;;;;;;;11.90;8.63;;;;;;;9.02;96.96;98733.95;2239934;80;20999;-84
2021/12/31 04:09:47;;;;;;;9.93;8.87;;;;;;;9.01;96.90;98730.89;2240009;79;21012;-83
2021/12/31 04:12:47;;;;;;;18.70;10.10;;;;;;;9.01;97.25;98725.27;2239780;79;20969;-82
2021/12/31 04:15:48;;;;;;;14.67;10.93;;;;;;;9.00;97.10;98722.20;2239695;79;20929;-82
2021/12/31 04:18:48;;;;;;;14.57;11.27;;;;;;;8.99;97.65;98719.16;2239863;79;20942;-83
2021/12/31 04:21:50;;;;;;;17.93;11.83;;;;;;;8.98;97.53;98708.72;2239744;79;21293;-82
2021/12/31 04:24:52;;;;;;;18.80;12.70;;;;;;;8.97;98.63;98713.47;2239991;79;21004;-82
2021/12/31 04:27:53;;;;;;;23.53;13.03;;;;;;;8.94;97.93;98707.37;2240117;79;21356;-83
2021/12/31 04:30:53;;;;;;;16.63;12.87;;;;;;;8.94;98.13;98696.08;2240262;79;20988;-83
2021/12/31 04:33:54;;;;;;;25.03;18.87;;;;;;;8.91;97.71;98685.19;2239890;79;21068;-81
2021/12/31 04:36:55;;;;;;;18.97;15.23;;;;;;;10.41;100.00;98685.91;2239878;79;21000;-81
2021/12/31 04:39:55;;;;;;;16.70;13.40;;;;;;;10.21;96.84;98682.63;2239407;79;21051;-82
2021/12/31 04:42:56;;;;;;;16.90;13.97;;;;;;;9.91;95.57;98692.69;2239563;79;20967;-82
2021/12/31 04:45:56;;;;;;;19.57;12.77;;;;;;;9.73;95.66;98703.77;2238575;79;20933;-82
2021/12/31 04:48:57;;;;;;;18.17;13.83;;;;;;;9.56;96.35;98703.97;2238517;79;20992;-80
2021/12/31 04:51:57;;;;;;;19.37;13.60;;;;;;;9.47;95.81;98712.50;2238755;79;21003;-82
2021/12/31 04:54:58;;;;;;;18.33;14.07;;;;;;;9.42;96.22;98705.47;2239469;79;21348;-83
2021/12/31 04:57:58;;;;;;;27.20;14.53;;;;;;;9.36;97.02;98720.59;2239139;79;21365;-82
2021/12/31 05:00:59;;;;;;;16.97;14.03;;;;;;;9.33;96.77;98720.55;2238781;79;20909;-82
2021/12/31 05:03:59;;;;;;;18.70;15.00;;;;;;;9.33;96.72;98724.88;2238245;79;20960;-82
2021/12/31 05:07:00;;;;;;;20.07;13.97;;;;;;;9.33;97.97;98730.97;2238893;79;20977;-82
2021/12/31 05:10:00;;;;;;;18.27;14.90;;;;;;;9.32;98.37;98734.42;2238664;79;20988;-82
2021/12/31 05:13:01;;;;;;;20.03;14.40;;;;;;;9.34;98.18;98736.63;2237235;79;20944;-80
2021/12/31 05:16:03;;;;;;;19.10;15.10;;;;;;;9.33;99.45;98736.17;2237845;79;20968;-81
2021/12/31 05:19:04;;;;;;;22.20;15.00;;;;;;;9.33;98.34;98742.69;2237791;80;20991;-82
2021/12/31 05:22:04;;;;;;;21.37;16.60;;;;;;;9.35;99.43;98737.50;2237503;79;21051;-82
2021/12/31 05:25:05;;;;;;;23.67;16.13;;;;;;;9.36;99.09;98735.34;2237370;79;21019;-80
2021/12/31 05:28:05;;;;;;;23.73;17.23;;;;;;;9.36;98.82;98733.62;2237304;79;20996;-81
2021/12/31 05:31:06;;;;;;;26.37;17.47;;;;;;;9.38;99.71;98736.24;2237886;79;21321;-81
2021/12/31 05:34:06;;;;;;;27.00;19.47;;;;;;;9.38;99.59;98740.16;2237555;79;21627;-82
2021/12/31 05:37:07;;;;;;;28.87;19.37;;;;;;;9.38;99.75;98730.61;2236622;79;21656;-81
2021/12/31 05:40:07;;;;;;;25.53;17.53;;;;;;;9.37;100.00;98734.49;2236517;79;20984;-83
2021/12/31 05:43:08;;;;;;;29.37;19.93;;;;;;;9.37;99.51;98731.46;2237522;79;20948;-81
2021/12/31 05:46:08;;;;;;;51.67;35.77;;;;;;;9.40;100.00;98727.59;2238062;79;20980;-82
2021/12/31 05:49:09;;;;;;;24.80;17.20;;;;;;;9.43;99.99;98718.95;2238427;79;20938;-83
2021/12/31 05:52:09;;;;;;;23.90;16.47;;;;;;;9.44;100.00;98733.73;2238033;79;20983;-81
2021/12/31 05:55:10;;;;;;;27.23;18.07;;;;;;;9.42;100.00;98736.73;2238413;79;21403;-82
2021/12/31 05:58:10;;;;;;;28.60;19.83;;;;;;;9.42;100.00;98739.34;2238474;79;20980;-81
2021/12/31 06:01:11;;;;;;;31.77;21.30;;;;;;;9.44;99.99;98741.12;2238637;79;20984;-82
2021/12/31 06:04:11;;;;;;;32.40;21.20;;;;;;;9.47;100.00;98742.89;2238222;79;20972;-82
2021/12/31 06:07:12;;;;;;;36.87;23.07;;;;;;;9.45;100.00;98746.78;2237491;79;20976;-82
2021/12/31 06:10:12;;;;;;;29.67;20.47;;;;;;;9.44;100.00;98747.63;2237992;79;20953;-81
2021/12/31 06:13:13;;;;;;;31.03;20.07;;;;;;;9.43;100.00;98751.09;2237568;79;21336;-82
2021/12/31 06:16:13;;;;;;;21.33;15.37;;;;;;;9.43;100.00;98745.88;2237470;79;20976;-81
2021/12/31 06:19:14;;;;;;;19.43;12.93;;;;;;;9.43;100.00;98748.48;2237888;79;20988;-81
2021/12/31 06:22:15;;;;;;;27.80;16.43;;;;;;;9.45;100.00;98753.29;2238574;79;20979;-82
2021/12/31 06:25:15;;;;;;;18.03;14.97;;;;;;;9.46;100.00;98755.05;2238595;79;21072;-82
2021/12/31 06:28:16;;;;;;;39.20;24.70;;;;;;;9.45;100.00;98757.20;2239180;79;20960;-83
2021/12/31 06:31:16;;;;;;;35.83;23.67;;;;;;;9.48;100.00;98753.34;2239491;79;20940;-83
2021/12/31 06:34:17;;;;;;;65.30;36.27;;;;;;;9.48;100.00;98757.67;2238828;79;21023;-82
2021/12/31 06:37:17;;;;;;;40.67;24.27;;;;;;;9.47;100.00;98756.80;2238727;79;20987;-82
2021/12/31 06:40:21;;;;;;;24.43;15.73;;;;;;;9.50;100.00;98761.17;2239203;79;21011;-82
2021/12/31 06:43:21;;;;;;;20.57;13.90;;;;;;;9.49;100.00;98759.00;2239421;79;20946;-84
2021/12/31 06:46:22;;;;;;;20.80;12.40;;;;;;;9.49;100.00;98759.00;2239816;80;20988;-83
2021/12/31 06:49:22;;;;;;;29.40;16.33;;;;;;;9.50;100.00;98759.88;2238926;79;21404;-82
2021/12/31 06:52:23;;;;;;;79.50;38.53;;;;;;;9.50;100.00;98757.27;2238935;79;20984;-82
2021/12/31 06:55:23;;;;;;;73.40;38.60;;;;;;;9.50;100.00;98765.08;2239207;79;21030;-83
2021/12/31 06:58:26;;;;;;;43.77;23.17;;;;;;;9.48;100.00;98759.84;2238772;79;21019;-84
2021/12/31 07:01:27;;;;;;;27.07;15.37;;;;;;;9.49;100.00;98760.73;2238633;79;21015;-82
2021/12/31 07:04:27;;;;;;;15.90;10.60;;;;;;;9.49;100.00;98754.21;2239088;79;20956;-83
2021/12/31 07:07:28;;;;;;;20.37;12.70;;;;;;;9.49;100.00;98761.60;2238646;79;20980;-84
2021/12/31 07:10:28;;;;;;;13.00;9.83;;;;;;;9.48;100.00;98765.06;2239367;79;20944;-82
2021/12/31 07:13:29;;;;;;;13.03;9.60;;;;;;;9.48;100.00;98754.64;2238381;80;21009;-82
2021/12/31 07:16:29;;;;;;;19.87;14.33;;;;;;;9.47;100.00;98758.09;2238244;80;20996;-82
2021/12/31 07:19:30;;;;;;;22.53;14.70;;;;;;;9.49;100.00;98764.63;2238196;79;21365;-82
2021/12/31 07:22:30;;;;;;;14.90;9.00;;;;;;;9.48;100.00;98765.48;2238844;79;21035;-83
2021/12/31 07:25:31;;;;;;;18.20;8.30;;;;;;;9.49;100.00;98773.33;2238965;79;21302;-81
2021/12/31 07:28:32;;;;;;;10.87;7.90;;;;;;;9.48;100.00;98768.97;2237720;80;21004;-83
2021/12/31 07:31:32;;;;;;;9.57;8.03;;;;;;;9.47;100.00;98769.82;2238706;79;20937;-82
2021/12/31 07:34:33;;;;;;;9.63;6.57;;;;;;;9.50;100.00;98778.98;2238889;80;21020;-83
2021/12/31 07:37:34;;;;;;;9.60;7.57;;;;;;;9.53;100.00;98785.97;2239283;80;21682;-82
2021/12/31 07:40:39;;;;;;;9.60;6.40;;;;;;;9.52;100.00;98779.88;2238498;79;21020;-82
2021/12/31 07:43:40;;;;;;;9.50;8.27;;;;;;;9.52;100.00;98781.61;2239341;79;21353;-82
2021/12/31 07:46:43;;;;;;;6.87;5.83;;;;;;;9.52;100.00;98779.01;2239258;80;20992;-82
2021/12/31 07:49:42;;;;;;;8.43;6.30;;;;;;;9.51;100.00;98780.73;2239686;79;21083;-83
2021/12/31 07:52:45;;;;;;;5.93;5.33;;;;;;;9.52;100.00;98786.40;2217444;80;20996;-84
2021/12/31 07:55:45;;;;;;;6.47;5.20;;;;;;;9.54;100.00;98783.85;2239256;79;20984;-81
2021/12/31 07:58:46;;;;;;;6.17;5.27;;;;;;;9.57;100.00;98789.98;2238481;79;21407;-82
2021/12/31 08:04:49;;;;;;;5.77;4.50;;;;;;;9.62;100.00;98788.75;2215727;80;21464;-83
2021/12/31 08:07:50;;;;;;;7.97;5.77;;;;;;;9.64;100.00;98774.02;2238788;80;21003;-84
2021/12/31 08:10:52;;;;;;;8.00;5.43;;;;;;;9.65;100.00;98782.28;2217051;80;20944;-84
2021/12/31 08:13:53;;;;;;;6.43;5.83;;;;;;;9.69;100.00;98777.56;2238518;80;21046;-83
2021/12/31 08:16:53;;;;;;;8.63;5.63;;;;;;;9.70;100.00;98786.25;2239056;79;20988;-83
2021/12/31 08:19:54;;;;;;;7.03;5.07;;;;;;;9.71;100.00;98791.91;2239221;80;21019;-82
2021/12/31 08:25:59;;;;;;;5.90;5.40;;;;;;;9.72;100.00;98789.76;2125129;84;21056;-84
2021/12/31 08:28:59;;;;;;;8.20;5.57;;;;;;;9.73;100.00;98798.03;2126094;84;20993;-83
2021/12/31 08:35:02;;;;;;;11.83;7.80;;;;;;;9.79;100.00;98801.59;2093862;85;21040;-82
2021/12/31 08:38:03;;;;;;;9.77;7.40;;;;;;;9.79;100.00;98802.90;2100391;85;21098;-83
2021/12/31 08:41:03;;;;;;;9.37;8.27;;;;;;;9.79;100.00;98811.14;2101102;84;21436;-82
2021/12/31 08:44:04;;;;;;;9.67;6.30;;;;;;;9.78;100.00;98812.87;2098814;85;21043;-83
2021/12/31 08:47:05;;;;;;;7.90;6.87;;;;;;;9.82;100.00;98813.80;2098938;85;21044;-83
2021/12/31 08:50:05;;;;;;;8.43;7.30;;;;;;;9.80;100.00;98820.30;2099851;85;21017;-83
2021/12/31 08:56:08;;;;;;;7.87;7.07;;;;;;;9.79;100.00;98821.58;2076540;85;21036;-84
2021/12/31 08:59:09;;;;;;;8.03;7.00;;;;;;;9.79;100.00;98823.75;2098529;85;20993;-83
2021/12/31 09:02:10;;;;;;;8.67;7.83;;;;;;;9.82;100.00;98824.22;2099457;85;20993;-83
2021/12/31 09:05:17;;;;;;;9.73;7.17;;;;;;;9.85;100.00;98826.87;2099440;85;21033;-83
2021/12/31 09:08:17;;;;;;;7.60;6.80;;;;;;;9.87;100.00;98819.52;2098772;85;21036;-82
2021/12/31 09:11:18;;;;;;;8.23;7.17;;;;;;;9.89;100.00;98817.81;2098146;85;21016;-82
2021/12/31 09:14:19;;;;;;;8.40;6.57;;;;;;;9.93;100.00;98821.77;2099087;85;21040;-83
2021/12/31 09:17:22;;;;;;;8.93;6.93;;;;;;;9.93;100.00;98831.77;2098853;85;21012;-82
2021/12/31 09:23:24;;;;;;;10.30;7.83;;;;;;;10.05;100.00;98834.98;2139475;82;21082;-83
2021/12/31 09:26:27;;;;;;;12.73;9.03;;;;;;;10.09;100.00;98834.16;2152561;82;20991;-82
2021/12/31 09:29:27;;;;;;;11.33;8.67;;;;;;;10.10;100.00;98832.88;2177945;82;21019;-83
2021/12/31 09:32:28;;;;;;;10.20;6.83;;;;;;;10.12;100.00;98844.64;2190910;81;20977;-84
2021/12/31 09:35:29;;;;;;;9.00;6.70;;;;;;;10.17;100.00;98834.71;2193401;81;21043;-83
2021/12/31 09:38:29;;;;;;;11.70;7.80;;;;;;;10.23;100.00;98822.64;2194622;81;21004;-83
2021/12/31 09:41:32;;;;;;;8.73;6.77;;;;;;;10.27;100.00;98825.73;2197509;80;21009;-82
2021/12/31 09:44:32;;;;;;;10.23;7.60;;;;;;;10.35;100.00;98818.88;2239101;79;21009;-83
2021/12/31 09:47:33;;;;;;;9.20;6.97;;;;;;;10.45;100.00;98815.55;2216763;80;21007;-83
2021/12/31 09:50:36;;;;;;;9.70;6.90;;;;;;;10.51;100.00;98818.23;2239302;79;20991;-82
2021/12/31 09:53:37;;;;;;;8.27;6.67;;;;;;;10.56;99.99;98815.67;2240070;79;20995;-84
2021/12/31 09:56:39;;;;;;;10.13;6.87;;;;;;;10.67;99.42;98815.37;2239308;80;21301;-83
2021/12/31 09:59:41;;;;;;;11.70;7.53;;;;;;;10.76;98.87;98818.08;2239643;80;20972;-83
2021/12/31 10:02:42;;;;;;;12.37;9.50;;;;;;;10.85;97.96;98816.44;2239021;80;21008;-83
2021/12/31 10:05:42;;;;;;;12.23;9.27;;;;;;;10.95;97.39;98821.75;2239465;80;21040;-83
2021/12/31 10:08:43;;;;;;;16.77;11.50;;;;;;;11.02;97.05;98814.42;2240511;80;21011;-84
2021/12/31 10:11:43;;;;;;;13.00;9.57;;;;;;;11.06;97.01;98805.75;2240260;79;21011;-83
2021/12/31 10:14:44;;;;;;;12.97;9.17;;;;;;;11.09;96.40;98812.31;2239290;80;20996;-82
2021/12/31 10:17:44;;;;;;;11.87;7.33;;;;;;;11.14;96.38;98815.84;2238577;80;20960;-81
2021/12/31 10:20:45;;;;;;;8.03;6.90;;;;;;;11.16;95.34;98802.36;2238891;80;21016;-82
2021/12/31 10:23:48;;;;;;;9.43;8.13;;;;;;;11.19;95.24;98799.77;2238511;79;20933;-82
2021/12/31 10:26:52;;;;;;;13.27;7.10;;;;;;;11.22;95.44;98790.66;2216428;80;20964;-83
2021/12/31 10:29:54;;;;;;;11.40;7.73;;;;;;;11.33;94.65;98787.73;2238115;79;20908;-83
2021/12/31 10:32:55;;;;;;;15.30;8.87;;;;;;;11.45;94.54;98789.56;2239306;79;20961;-82
2021/12/31 10:35:55;;;;;;;16.57;9.97;;;;;;;11.60;94.56;98793.59;2239426;80;21014;-82
2021/12/31 10:38:56;;;;;;;16.62;11.05;;;;;;;11.74;93.09;98794.99;2239423;80;20945;-82
2021/12/31 10:41:56;;;;;;;12.82;8.78;;;;;;;11.75;92.61;98791.52;2239480;79;20981;-82
2021/12/31 10:44:57;;;;;;;17.30;10.38;;;;;;;11.72;91.45;98796.29;2238710;79;21031;-81
2021/12/31 10:47:58;;;;;;;15.53;10.60;;;;;;;11.73;91.95;98790.63;2238853;79;21285;-81
2021/12/31 10:50:59;;;;;;;12.25;7.62;;;;;;;11.83;91.33;98783.31;2238101;80;20929;-83
2021/12/31 10:53:59;;;;;;;13.48;9.28;;;;;;;11.94;90.27;98788.17;2237682;80;20995;-82
2021/12/31 10:57:00;;;;;;;30.88;13.45;;;;;;;12.03;90.66;98793.45;2238399;80;20945;-82
2021/12/31 11:00:00;;;;;;;16.57;9.20;;;;;;;12.08;89.09;98793.47;2238745;79;20996;-83
2021/12/31 11:03:01;;;;;;;13.38;7.65;;;;;;;12.07;88.63;98799.14;2238770;80;20980;-81
2021/12/31 11:06:02;;;;;;;8.73;5.95;;;;;;;12.10;89.19;98793.92;2238124;80;21031;-84
2021/12/31 11:09:06;;;;;;;11.45;6.92;;;;;;;12.18;88.27;98789.19;2239004;79;20976;-81
2021/12/31 11:12:05;;;;;;;9.78;6.53;;;;;;;12.22;88.35;98787.91;2238384;80;20984;-82
2021/12/31 11:15:05;;;;;;;8.85;6.28;;;;;;;12.14;86.87;98781.76;2238858;80;20992;-83
2021/12/31 11:18:06;;;;;;;13.22;7.20;;;;;;;12.08;87.48;98784.31;2239553;80;20988;-83
2021/12/31 11:21:08;;;;;;;10.50;6.33;;;;;;;12.05;87.36;98790.84;2239758;80;20972;-82
2021/12/31 11:24:09;;;;;;;9.13;5.80;;;;;;;11.99;87.37;98785.14;2239074;79;20940;-82
2021/12/31 11:27:09;;;;;;;7.58;4.90;;;;;;;12.00;87.51;98784.71;2238640;79;20933;-81
2021/12/31 11:33:17;;;;;;;12.13;5.70;;;;;;;11.94;87.62;98779.45;2217870;80;21154;-83
2021/12/31 11:36:15;;;;;;;8.88;4.90;;;;;;;11.85;87.25;98777.66;2238055;79;21076;-82
2021/12/31 11:39:15;;;;;;;8.20;4.80;;;;;;;11.80;87.26;98775.45;2239354;79;20972;-82
2021/12/31 11:42:16;;;;;;;9.60;6.05;;;;;;;11.80;87.68;98774.14;2239555;79;21451;-82
2021/12/31 11:45:17;;;;;;;11.05;6.53;;;;;;;11.81;87.91;98775.89;2239170;80;20969;-82
2021/12/31 11:48:17;;;;;;;13.95;7.05;;;;;;;11.78;87.36;98758.87;2239418;80;21094;-84
2021/12/31 11:51:18;;;;;;;13.60;7.47;;;;;;;11.70;86.57;98760.53;2239082;80;21352;-82
2021/12/31 11:54:18;;;;;;;15.98;7.85;;;;;;;11.64;87.22;98760.06;2239157;80;21013;-82
2021/12/31 11:57:21;;;;;;;10.80;6.47;;;;;;;11.52;87.60;98760.42;2216768;80;20980;-83
2021/12/31 12:00:21;;;;;;;11.23;6.50;;;;;;;11.34;88.73;98748.97;2239415;80;21328;-84
2021/12/31 12:03:22;;;;;;;10.30;6.43;;;;;;;11.19;89.53;98755.36;2239574;79;20964;-83
2021/12/31 12:09:25;;;;;;;11.77;8.07;;;;;;;10.94;90.92;98758.20;2217404;80;21031;-83
2021/12/31 12:12:29;;;;;;;13.77;7.70;;;;;;;10.89;91.16;98748.57;2239624;80;20980;-82
2021/12/31 12:15:33;;;;;;;14.90;7.22;;;;;;;10.81;91.59;98749.38;2240359;80;21064;-85
2021/12/31 12:18:33;;;;;;;16.50;8.23;;;;;;;10.74;92.24;98749.30;2240408;79;21472;-83
2021/12/31 12:21:34;;;;;;;12.07;6.23;;;;;;;10.72;92.05;98747.11;2239697;80;20980;-83
2021/12/31 12:24:35;;;;;;;12.13;6.67;;;;;;;10.70;92.66;98748.41;2239962;79;20956;-83
2021/12/31 12:27:35;;;;;;;13.60;7.10;;;;;;;10.73;92.76;98744.52;2239572;79;21741;-84
2021/12/31 12:33:38;;;;;;;11.73;6.13;;;;;;;10.72;92.82;98742.77;2216119;80;21012;-82
2021/12/31 12:36:39;;;;;;;10.53;5.93;;;;;;;10.69;92.64;98738.81;2238317;80;20944;-83
2021/12/31 12:39:39;;;;;;;11.90;6.10;;;;;;;10.69;92.79;98737.52;2239409;80;20972;-83
2021/12/31 12:42:43;;;;;;;9.33;6.70;;;;;;;10.68;92.82;98723.14;2239117;79;20989;-83
2021/12/31 12:45:43;;;;;;;10.50;7.03;;;;;;;10.64;92.71;98727.45;2239879;80;21064;-82
2021/12/31 12:48:47;;;;;;;14.67;8.50;;;;;;;10.63;92.71;98727.02;2218034;80;20989;-82
2021/12/31 12:51:48;;;;;;;16.80;8.17;;;;;;;10.59;92.74;98729.58;2239608;80;20919;-83
2021/12/31 12:54:49;;;;;;;10.27;7.23;;;;;;;10.58;92.95;98731.31;2239822;79;21368;-83
2021/12/31 12:57:50;;;;;;;10.60;5.83;;;;;;;10.57;92.68;98720.43;2239299;80;21078;-84
2021/12/31 13:00:50;;;;;;;12.17;6.60;;;;;;;10.57;92.58;98720.43;2239272;80;21373;-84
2021/12/31 13:03:51;;;;;;;10.77;6.23;;;;;;;10.58;92.35;98721.30;2239721;80;20987;-82
2021/12/31 13:06:52;;;;;;;10.13;6.80;;;;;;;10.54;92.27;98715.18;2240418;79;21015;-83
2021/12/31 13:23:42;;;;;;;14.40;6.90;;;;;;;10.57;92.07;98729.99;2247470;79;24508;-82
2021/12/31 13:26:42;;;;;;;14.63;8.23;;;;;;;10.51;92.01;98746.47;2212656;81;20988;-83
2021/12/31 13:29:44;;;;;;;11.63;8.23;;;;;;;10.51;91.98;98739.94;2212518;81;21035;-82
2021/12/31 13:32:46;;;;;;;10.30;7.33;;;;;;;10.51;91.91;98736.03;2212954;80;21029;-81
2021/12/31 13:35:46;;;;;;;13.80;8.60;;;;;;;10.52;91.87;98735.17;2212411;81;21479;-82
2021/12/31 13:38:47;;;;;;;9.90;6.90;;;;;;;10.51;91.60;98738.20;2212824;79;20972;-82
2021/12/31 13:41:47;;;;;;;9.83;6.47;;;;;;;10.51;91.55;98739.94;2212592;80;21012;-82
2021/12/31 13:44:48;;;;;;;13.20;6.80;;;;;;;10.49;91.47;98742.97;2212489;81;21007;-82
2021/12/31 13:47:48;;;;;;;9.10;6.20;;;;;;;10.47;91.46;98747.30;2212189;79;21390;-82
2021/12/31 13:50:49;;;;;;;9.43;6.87;;;;;;;10.46;91.37;98741.63;2212344;79;21004;-82
2021/12/31 13:53:50;;;;;;;13.00;7.80;;;;;;;10.45;91.28;98745.09;2212285;81;20987;-82
2021/12/31 13:56:50;;;;;;;12.63;9.40;;;;;;;10.44;91.16;98736.83;2211870;79;20999;-81
2021/12/31 13:59:51;;;;;;;14.63;9.47;;;;;;;10.40;91.14;98744.14;2212538;79;20940;-81
2021/12/31 14:02:51;;;;;;;18.27;10.00;;;;;;;10.38;91.18;98736.30;2212592;80;21018;-82
2021/12/31 14:05:54;;;;;;;12.60;8.33;;;;;;;10.37;91.03;98738.45;2212705;81;20998;-81
2021/12/31 14:08:54;;;;;;;13.80;8.80;;;;;;;10.37;90.97;98732.36;2212402;79;21070;-81
2021/12/31 14:11:56;;;;;;;23.17;14.33;;;;;;;10.37;90.85;98733.67;2213057;79;21046;-81
2021/12/31 14:14:57;;;;;;;33.00;16.53;;;;;;;10.37;90.54;98738.45;2213242;80;21008;-82
2021/12/31 14:17:59;;;;;;;23.63;12.63;;;;;;;10.35;90.60;98742.78;2213277;80;20979;-82
2021/12/31 14:21:00;;;;;;;14.97;8.43;;;;;;;10.35;90.42;98745.39;2213041;80;21038;-82
2021/12/31 14:24:05;;;;;;;17.17;9.13;;;;;;;10.36;90.17;98735.83;2212659;79;21015;-81
2021/12/31 14:27:08;;;;;;;;;;;;;;;10.34;89.90;98735.81;2215171;80;21032;-81
2021/12/31 14:30:08;;;;;;;17.53;11.77;;;;;;;10.34;89.95;98732.33;2212446;80;20156;-81
2021/12/31 14:33:09;;;;;;;21.77;12.70;;;;;;;10.34;89.93;98741.03;2212636;80;21009;-81
2021/12/31 14:36:09;;;;;;;20.47;11.67;;;;;;;10.33;89.82;98743.20;2212602;80;21375;-80
2021/12/31 14:39:14;;;;;;;24.13;11.90;;;;;;;10.34;89.60;98746.68;2212227;80;20987;-81
2021/12/31 14:42:13;;;;;;;17.07;10.73;;;;;;;10.33;89.74;98756.67;2212298;81;20964;-82
2021/12/31 14:45:13;;;;;;;16.67;10.13;;;;;;;10.34;89.78;98760.60;2213015;80;21016;-81
2021/12/31 14:51:16;;;;;;;22.93;14.33;;;;;;;10.27;90.60;98753.56;2180868;81;21051;-81